createdAt,value
2023-01-11T00:00:58.493Z,101116.81
2023-01-11T00:04:01.095Z,101110.53
2023-01-11T00:07:02.432Z,101113.50
2023-01-11T00:10:06.979Z,101112.81
2023-01-11T00:13:09.570Z,101103.38
2023-01-11T00:16:11.500Z,101112.78
2023-01-11T00:19:14.249Z,101090.81
2023-01-11T00:22:15.562Z,101087.31
2023-01-11T00:25:19.175Z,101082.81
2023-01-11T00:28:21.739Z,101073.63
2023-01-11T00:31:23.166Z,101069.16
2023-01-11T00:34:25.913Z,101069.66
2023-01-11T00:37:27.257Z,101066.13
2023-01-11T00:40:30.593Z,101065.94
2023-01-11T00:43:51.147Z,101062.28
2023-01-11T00:47:10.483Z,101057.09
2023-01-11T00:50:13.153Z,101050.41
2023-01-11T00:53:14.738Z,101048.56
2023-01-11T00:56:18.207Z,101048.94
2023-01-11T00:59:19.551Z,101048.81
2023-01-11T01:02:23.085Z,101039.81
2023-01-11T01:05:24.902Z,101023.91
2023-01-11T01:08:28.087Z,101025.38
2023-01-11T01:11:31.397Z,101017.88
2023-01-11T01:14:32.923Z,101025.38
2023-01-11T01:17:38.863Z,101026.19
2023-01-11T01:20:41.984Z,101026.06
2023-01-11T01:23:43.440Z,101031.94
2023-01-11T01:26:47.582Z,101012.00
2023-01-11T01:29:49.163Z,101025.38
2023-01-11T01:32:51.749Z,101021.91
2023-01-11T01:35:54.385Z,101016.81
2023-01-11T01:38:55.652Z,101029.50
2023-01-11T01:41:59.489Z,101023.38
2023-01-11T01:45:07.133Z,101006.38
2023-01-11T01:48:11.235Z,101007.81
2023-01-11T01:51:19.378Z,100995.72
2023-01-11T01:54:25.598Z,100993.53
2023-01-11T01:57:34.145Z,100991.25
2023-01-11T02:00:39.599Z,100983.19
2023-01-11T02:03:40.890Z,100986.25
2023-01-11T02:06:43.929Z,100970.84
2023-01-11T02:09:50.752Z,100971.59
2023-01-11T02:12:59.518Z,100969.56
2023-01-11T02:16:07.477Z,100954.44
2023-01-11T02:19:21.115Z,100950.50
2023-01-11T02:22:59.653Z,100931.00
2023-01-11T02:29:55.310Z,100920.84
2023-01-11T02:33:05.267Z,100898.91
2023-01-11T02:36:17.299Z,100905.94
2023-01-11T02:39:31.307Z,100912.91
2023-01-11T02:46:28.107Z,100901.84
2023-01-11T02:49:36.728Z,100897.06
2023-01-11T02:56:10.627Z,100887.81
2023-01-11T02:59:18.248Z,100883.28
2023-01-11T03:02:20.220Z,100875.75
2023-01-11T03:05:22.941Z,100874.44
2023-01-11T03:08:45.216Z,100875.47
2023-01-11T03:12:28.952Z,100863.97
2023-01-11T03:15:56.044Z,100857.09
2023-01-11T03:22:52.845Z,100847.78
2023-01-11T03:26:03.167Z,100843.38
2023-01-11T03:29:11.547Z,100849.66
2023-01-11T03:32:22.126Z,100842.78
2023-01-11T03:35:31.264Z,100838.38
2023-01-11T03:38:39.132Z,100840.38
2023-01-11T03:41:43.121Z,100829.63
2023-01-11T03:44:49.479Z,100827.63
2023-01-11T03:51:21.954Z,100836.66
2023-01-11T03:54:24.294Z,100829.94
2023-01-11T03:57:32.159Z,100817.88
2023-01-11T04:00:33.531Z,100816.06
2023-01-11T04:03:36.119Z,100821.97
2023-01-11T04:06:38.901Z,100808.50
2023-01-11T04:09:41.470Z,100809.72
2023-01-11T04:12:47.702Z,100800.06
2023-01-11T04:15:49.247Z,100798.13
2023-01-11T04:18:51.758Z,100792.84
2023-01-11T04:21:54.992Z,100785.25
2023-01-11T04:24:56.306Z,100778.44
2023-01-11T04:27:57.748Z,100789.50
2023-01-11T04:30:59.049Z,100776.53
2023-01-11T04:34:01.629Z,100764.16
2023-01-11T04:37:03.551Z,100774.22
2023-01-11T04:40:07.391Z,100781.09
2023-01-11T04:43:10.310Z,100774.78
2023-01-11T04:46:11.676Z,100777.19
2023-01-11T04:52:34.611Z,100759.13
2023-01-11T04:55:37.667Z,100764.56
2023-01-11T04:58:40.198Z,100758.69
2023-01-11T05:01:41.679Z,100751.84
2023-01-11T05:04:43.003Z,100750.34
2023-01-11T05:07:45.030Z,100757.50
2023-01-11T05:10:51.853Z,100760.41
2023-01-11T05:13:54.410Z,100757.88
2023-01-11T05:16:55.742Z,100736.72
2023-01-11T05:23:19.135Z,100718.41
2023-01-11T05:26:23.714Z,100730.69
2023-01-11T05:29:25.109Z,100724.63
2023-01-11T05:32:26.493Z,100717.47
2023-01-11T05:35:29.064Z,100716.34
2023-01-11T05:38:31.118Z,100703.19
2023-01-11T05:41:34.448Z,100708.34
2023-01-11T05:44:55.386Z,100701.06
2023-01-11T05:48:00.021Z,100709.81
2023-01-11T05:51:01.612Z,100712.53
2023-01-11T05:54:06.733Z,100711.06
2023-01-11T05:57:12.037Z,100702.84
2023-01-11T06:00:14.568Z,100697.53
2023-01-11T06:03:17.528Z,100696.69
2023-01-11T06:06:20.008Z,100707.44
2023-01-11T06:09:21.959Z,100695.06
2023-01-11T06:12:23.438Z,100693.22
2023-01-11T06:15:26.355Z,100681.50
2023-01-11T06:18:28.621Z,100684.72
2023-01-11T06:21:31.724Z,100678.19
2023-01-11T06:24:33.731Z,100672.00
2023-01-11T06:27:35.117Z,100666.22
2023-01-11T06:30:37.589Z,100652.25
2023-01-11T06:33:40.593Z,100663.78
2023-01-11T06:36:42.184Z,100672.56
2023-01-11T06:39:45.447Z,100662.53
2023-01-11T06:42:47.237Z,100682.09
2023-01-11T06:45:49.926Z,100668.19
2023-01-11T06:48:52.474Z,100678.50
2023-01-11T06:51:53.789Z,100676.75
2023-01-11T06:54:57.031Z,100667.78
2023-01-11T06:57:58.661Z,100687.41
2023-01-11T07:01:00.314Z,100678.44
2023-01-11T07:04:01.878Z,100685.44
2023-01-11T07:07:03.245Z,100686.88
2023-01-11T07:10:09.566Z,100691.94
2023-01-11T07:13:13.231Z,100696.13
2023-01-11T07:16:16.556Z,100695.88
2023-01-11T07:19:18.123Z,100689.16
2023-01-11T07:22:21.639Z,100694.69
2023-01-11T07:28:44.326Z,100694.13
2023-01-11T07:31:46.119Z,100689.16
2023-01-11T07:34:47.871Z,100690.84
2023-01-11T07:37:49.249Z,100691.56
2023-01-11T07:40:52.530Z,100687.50
2023-01-11T07:43:53.562Z,100689.19
2023-01-11T07:46:54.997Z,100687.78
2023-01-11T07:49:57.752Z,100689.19
2023-01-11T07:52:59.136Z,100688.00
2023-01-11T07:59:22.698Z,100677.81
2023-01-11T08:02:24.228Z,100687.28
2023-01-11T08:05:25.719Z,100687.53
2023-01-11T08:08:27.428Z,100681.00
2023-01-11T08:11:48.999Z,100679.00
2023-01-11T08:14:50.295Z,100678.78
2023-01-11T08:17:52.948Z,100683.66
2023-01-11T08:20:54.605Z,100670.94
2023-01-11T08:23:57.549Z,100674.38
2023-01-11T08:26:59.570Z,100676.16
2023-01-11T08:30:00.881Z,100672.72
2023-01-11T08:33:04.039Z,100675.69
2023-01-11T08:36:06.355Z,100670.09
2023-01-11T08:39:07.758Z,100667.00
2023-01-11T08:42:11.006Z,100663.44
2023-01-11T08:45:12.334Z,100680.28
2023-01-11T08:48:16.776Z,100679.44
2023-01-11T08:51:18.171Z,100675.53
2023-01-11T08:54:20.739Z,100670.91
2023-01-11T08:57:22.796Z,100676.56
2023-01-11T09:00:24.222Z,100664.03
2023-01-11T09:03:27.000Z,100663.09
2023-01-11T09:06:29.572Z,100657.97
2023-01-11T09:12:54.532Z,100659.03
2023-01-11T09:15:57.584Z,100654.06
2023-01-11T09:18:58.969Z,100657.50
2023-01-11T09:25:24.716Z,100658.19
2023-01-11T09:28:26.662Z,100663.06
2023-01-11T09:31:29.286Z,100656.88
2023-01-11T09:34:30.955Z,100667.44
2023-01-11T09:37:32.742Z,100666.59
2023-01-11T09:40:45.461Z,100653.72
2023-01-11T09:43:55.702Z,100650.28
2023-01-11T09:47:14.158Z,100646.97
2023-01-11T09:50:21.075Z,100646.00
2023-01-11T09:53:31.447Z,100650.28
2023-01-11T09:56:43.409Z,100637.94
2023-01-11T09:59:53.360Z,100638.19
2023-01-11T10:03:22.603Z,100639.63
2023-01-11T10:06:28.345Z,100629.88
2023-01-11T10:18:30.650Z,100617.91
2023-01-11T10:20:24.454Z,100601.06
2023-01-11T10:23:35.399Z,100609.72
2023-01-11T10:26:39.704Z,100612.34
2023-01-11T10:30:05.378Z,100605.69
2023-01-11T10:33:25.872Z,100597.75
2023-01-11T10:36:52.180Z,100590.03
2023-01-11T10:40:18.701Z,100593.00
2023-01-11T10:43:23.536Z,100585.84
2023-01-11T10:46:27.800Z,100583.16
2023-01-11T10:49:46.096Z,100582.91
2023-01-11T10:52:55.416Z,100581.81
2023-01-11T10:56:03.441Z,100583.81
2023-01-11T10:59:26.046Z,100578.66
2023-01-11T11:02:48.353Z,100584.63
2023-01-11T11:09:22.041Z,100572.03
2023-01-11T11:12:26.698Z,100563.28
2023-01-11T11:15:35.960Z,100561.00
2023-01-11T11:18:37.289Z,100550.03
2023-01-11T11:21:41.915Z,100553.16
2023-01-11T11:24:49.668Z,100542.09
2023-01-11T11:27:55.270Z,100541.59
2023-01-11T11:30:58.855Z,100539.81
2023-01-11T11:34:06.189Z,100537.75
2023-01-11T11:37:24.192Z,100539.34
2023-01-11T11:40:34.935Z,100545.28
2023-01-11T11:43:37.329Z,100536.72
2023-01-11T11:46:38.697Z,100544.97
2023-01-11T11:49:41.274Z,100535.03
2023-01-11T11:52:44.210Z,100534.63
2023-01-11T11:55:46.023Z,100518.25
2023-01-11T11:58:47.673Z,100524.84
2023-01-11T12:01:58.034Z,100517.50
2023-01-11T12:05:04.783Z,100514.28
2023-01-11T12:08:13.343Z,100506.31
2023-01-11T12:11:21.538Z,100506.41
2023-01-11T12:14:26.767Z,100504.34
2023-01-11T12:17:28.877Z,100501.03
2023-01-11T12:20:38.679Z,100494.34
2023-01-11T12:23:40.708Z,100488.56
2023-01-11T12:26:50.951Z,100489.09
2023-01-11T12:30:07.507Z,100492.19
2023-01-11T12:36:54.535Z,100487.88
2023-01-11T12:40:05.248Z,100490.69
2023-01-11T12:43:31.188Z,100492.88
2023-01-11T12:46:47.899Z,100480.09
2023-01-11T12:49:55.919Z,100481.06
2023-01-11T12:53:10.682Z,100474.97
2023-01-11T12:56:45.072Z,100466.91
2023-01-11T13:00:12.124Z,100470.56
2023-01-11T13:03:44.835Z,100468.91
2023-01-11T13:06:57.224Z,100465.94
2023-01-11T13:10:17.260Z,100471.81
2023-01-11T13:13:29.598Z,100469.81
2023-01-11T13:16:37.547Z,100469.91
2023-01-11T13:19:46.102Z,100466.75
2023-01-11T13:22:53.746Z,100475.19
2023-01-11T13:25:56.885Z,100469.72
2023-01-11T13:29:02.864Z,100469.41
2023-01-11T13:32:09.287Z,100479.09
2023-01-11T13:35:17.038Z,100467.34
2023-01-11T13:38:30.849Z,100474.38
2023-01-11T13:41:37.954Z,100475.78
2023-01-11T13:44:48.623Z,100476.44
2023-01-11T13:47:51.876Z,100482.16
2023-01-11T13:51:01.155Z,100487.88
2023-01-11T13:54:08.207Z,100481.50
2023-01-11T13:57:18.301Z,100469.81
2023-01-11T14:00:27.516Z,100482.50
2023-01-11T14:03:34.824Z,100482.72
2023-01-11T14:06:52.450Z,100482.81
2023-01-11T14:10:17.860Z,100494.50
2023-01-11T14:14:04.819Z,100480.84
2023-01-11T14:17:49.158Z,100487.69
2023-01-11T14:21:02.146Z,100490.28
2023-01-11T14:24:06.695Z,100484.22
2023-01-11T14:27:24.228Z,100484.66
2023-01-11T14:30:41.095Z,100496.38
2023-01-11T14:34:06.235Z,100506.34
2023-01-11T14:37:45.417Z,100502.38
2023-01-11T14:41:05.051Z,100508.69
2023-01-11T14:44:17.376Z,100510.34
2023-01-11T14:47:36.135Z,100508.69
2023-01-11T14:50:54.459Z,100507.78
2023-01-11T14:57:38.137Z,100515.38
2023-01-11T15:01:12.489Z,100512.72
2023-01-11T15:04:21.016Z,100517.53
2023-01-11T15:07:25.488Z,100525.22
2023-01-11T15:10:46.902Z,100512.16
2023-01-11T15:17:38.537Z,100518.72
2023-01-11T15:20:50.375Z,100527.81
2023-01-11T15:23:55.840Z,100530.78
2023-01-11T15:26:59.691Z,100537.16
2023-01-11T15:30:03.041Z,100542.47
2023-01-11T15:33:44.531Z,100548.59
2023-01-11T15:37:31.457Z,100548.59
2023-01-11T15:40:40.019Z,100553.81
2023-01-11T15:44:17.502Z,100554.16
2023-01-11T15:47:49.663Z,100550.66
2023-01-11T15:51:15.162Z,100557.13
2023-01-11T15:54:37.463Z,100560.88
2023-01-11T15:58:06.639Z,100571.06
2023-01-11T16:01:21.333Z,100571.81
2023-01-11T16:04:31.417Z,100575.06
2023-01-11T16:07:40.878Z,100583.41
2023-01-11T16:10:57.293Z,100594.19
2023-01-11T16:14:09.452Z,100586.91
2023-01-11T16:17:13.053Z,100587.16
2023-01-11T16:23:47.704Z,100602.47
2023-01-11T16:26:55.083Z,100615.97
2023-01-11T16:29:58.308Z,100622.31
2023-01-11T16:33:21.077Z,100614.25
2023-01-11T16:36:23.654Z,100616.91
2023-01-11T16:39:30.118Z,100602.47
2023-01-11T16:42:35.354Z,100621.38
2023-01-11T16:45:41.127Z,100624.03
2023-01-11T16:48:43.215Z,100639.88
2023-01-11T16:51:45.288Z,100633.31
2023-01-11T16:54:46.646Z,100620.22
2023-01-11T16:57:52.970Z,100634.06
2023-01-11T17:01:00.021Z,100643.44
2023-01-11T17:04:04.952Z,100652.53
2023-01-11T17:07:13.217Z,100651.47
2023-01-11T17:10:19.751Z,100649.34
2023-01-11T17:13:53.450Z,100672.06
2023-01-11T17:17:01.642Z,100672.88
2023-01-11T17:20:04.764Z,100671.69
2023-01-11T17:23:06.443Z,100670.97
2023-01-11T17:26:16.387Z,100674.69
2023-01-11T17:29:24.884Z,100683.00
2023-01-11T17:32:36.362Z,100685.94
2023-01-11T17:35:41.494Z,100675.34
2023-01-11T17:38:43.878Z,100675.09
2023-01-11T17:42:03.532Z,100679.91
2023-01-11T17:45:20.552Z,100679.75
2023-01-11T17:48:25.284Z,100678.06
2023-01-11T17:51:31.906Z,100690.06
2023-01-11T17:54:33.206Z,100686.50
2023-01-11T17:57:35.729Z,100691.50
2023-01-11T18:00:37.658Z,100694.72
2023-01-11T18:03:42.612Z,100698.28
2023-01-11T18:06:48.664Z,100717.44
2023-01-11T18:09:59.063Z,100717.94
2023-01-11T18:13:00.931Z,100718.09
2023-01-11T18:16:03.840Z,100725.59
2023-01-11T18:19:23.489Z,100722.63
2023-01-11T18:22:30.458Z,100731.22
2023-01-11T18:25:33.973Z,100724.19
2023-01-11T18:28:38.466Z,100726.72
2023-01-11T18:31:41.407Z,100732.44
2023-01-11T18:34:45.607Z,100733.84
2023-01-11T18:37:48.911Z,100746.94
2023-01-11T18:40:52.594Z,100738.47
2023-01-11T18:43:56.373Z,100750.00
2023-01-11T18:46:58.907Z,100745.13
2023-01-11T18:50:00.221Z,100744.34
2023-01-11T18:53:02.213Z,100746.38
2023-01-11T18:56:05.361Z,100743.88
2023-01-11T18:59:06.655Z,100753.41
2023-01-11T19:05:22.621Z,100760.66
2023-01-11T19:08:25.959Z,100775.28
2023-01-11T19:11:28.160Z,100781.34
2023-01-11T19:14:30.736Z,100790.94
2023-01-11T19:17:32.265Z,100788.00
2023-01-11T19:20:34.960Z,100799.75
2023-01-11T19:23:36.930Z,100790.72
2023-01-11T19:26:39.564Z,100797.16
2023-01-11T19:29:41.194Z,100796.78
2023-01-11T19:32:43.809Z,100798.47
2023-01-11T19:35:49.681Z,100810.81
2023-01-11T19:42:12.560Z,100800.81
2023-01-11T19:45:14.016Z,100803.44
2023-01-11T19:48:15.451Z,100815.94
2023-01-11T19:51:16.743Z,100818.03
2023-01-11T19:54:22.090Z,100821.84
2023-01-11T19:57:23.532Z,100827.94
2023-01-11T20:00:24.940Z,100822.81
2023-01-11T20:03:29.390Z,100827.78
2023-01-11T20:06:31.364Z,100840.38
2023-01-11T20:09:37.864Z,100833.03
2023-01-11T20:12:40.409Z,100838.38
2023-01-11T20:15:41.849Z,100841.69
2023-01-11T20:18:43.959Z,100840.88
2023-01-11T20:21:45.348Z,100850.44
2023-01-11T20:24:47.317Z,100853.16
2023-01-11T20:27:50.014Z,100852.47
2023-01-11T20:30:52.060Z,100857.19
2023-01-11T20:33:55.696Z,100846.75
2023-01-11T20:36:57.062Z,100861.69
2023-01-11T20:39:59.304Z,100855.50
2023-01-11T20:43:00.654Z,100852.53
2023-01-11T20:46:02.005Z,100857.88
2023-01-11T20:49:04.267Z,100865.59
2023-01-11T20:52:05.647Z,100865.00
2023-01-11T20:55:09.278Z,100859.63
2023-01-11T20:58:13.047Z,100865.09
2023-01-11T21:01:15.359Z,100865.72
2023-01-11T21:04:17.764Z,100867.69
2023-01-11T21:07:19.055Z,100861.88
2023-01-11T21:10:22.448Z,100862.34
2023-01-11T21:13:23.783Z,100850.47
2023-01-11T21:16:27.146Z,100851.63
2023-01-11T21:19:29.721Z,100853.19
2023-01-11T21:22:31.023Z,100856.13
2023-01-11T21:25:34.512Z,100856.50
2023-01-11T21:28:35.767Z,100854.56
2023-01-11T21:31:39.578Z,100861.78
2023-01-11T21:34:40.963Z,100855.13
2023-01-11T21:37:42.264Z,100852.00
2023-01-11T21:40:45.975Z,100853.19
2023-01-11T21:43:48.575Z,100860.91
2023-01-11T21:46:50.008Z,100851.75
2023-01-11T21:49:52.857Z,100867.06
2023-01-11T21:52:54.579Z,100868.56
2023-01-11T21:55:58.015Z,100872.59
2023-01-11T21:58:59.364Z,100869.78
2023-01-11T22:02:01.900Z,100872.00
2023-01-11T22:05:03.615Z,100862.75
2023-01-11T22:08:06.189Z,100862.50
2023-01-11T22:11:10.303Z,100865.41
2023-01-11T22:14:11.628Z,100873.06
2023-01-11T22:17:12.937Z,100873.97
2023-01-11T22:20:16.826Z,100868.59
2023-01-11T22:23:18.131Z,100858.47
2023-01-11T22:26:21.710Z,100865.81
2023-01-11T22:29:23.360Z,100856.91
2023-01-11T22:32:26.066Z,100860.72
2023-01-11T22:35:28.669Z,100852.34
2023-01-11T22:38:29.990Z,100852.94
2023-01-11T22:41:33.527Z,100854.84
2023-01-11T22:44:34.936Z,100848.09
2023-01-11T22:47:37.535Z,100848.81
2023-01-11T22:50:40.187Z,100849.16
2023-01-11T22:53:43.298Z,100848.91
2023-01-11T22:56:46.607Z,100849.69
2023-01-11T22:59:47.913Z,100855.06
2023-01-11T23:02:50.530Z,100848.59
2023-01-11T23:05:51.864Z,100855.72
2023-01-11T23:08:55.102Z,100854.22
2023-01-11T23:12:23.681Z,100844.59
2023-01-11T23:15:26.313Z,100854.28
2023-01-11T23:18:28.841Z,100853.69
2023-01-11T23:21:31.653Z,100860.28
2023-01-11T23:24:33.080Z,100857.91
2023-01-11T23:27:36.296Z,100864.75
2023-01-11T23:30:37.595Z,100866.47
2023-01-11T23:33:40.238Z,100863.00
2023-01-11T23:36:43.902Z,100851.03
2023-01-11T23:39:45.225Z,100842.03
2023-01-11T23:46:22.272Z,100824.84
2023-01-11T23:49:25.587Z,100826.81
2023-01-11T23:52:29.934Z,100817.44
2023-01-11T23:55:31.364Z,100836.41
2023-01-11T23:58:34.791Z,100824.78
